AR92 weather

Unity Health Harris Medical Center Heliport
Newport, Arkansas, United States

Public forecast

Using degrees Fahrenheit for public forecast. Weather courtesy of forecast.io.

Closest aviation weather report (METAR) to Unity Health Harris Medical Center Heliport

Closest report is Newport Regional Airport, 4.6 nm (8.5 km) ENE. Retrieved UTC (0 seconds ago):

Closest aviation forecast (TAF) to Unity Health Harris Medical Center Heliport

Closest forecast is Jonesboro Municipal Airport, 32.9 nm (61.0 km) ENE. Retrieved 2020/01/28 06:27 UTC (42 minutes ago):

TAF KJBR 280524Z 2806/2906 VRB03KT P6SM FEW250 TEMPO 2808/2812 4SM BR FM281200 05006KT P6SM BKN035 FM282100 05007KT P6SM OVC020 FM290000 05006KT P6SM -SHRA OVC015 FM290300 05005KT 4SM -SHRA BR BKN007 OVC015